sensor_id;sensor_type;location;lat;lon;timestamp;pressure;altitude;pressure_sealevel;temperature;humidity
76026;BME280;64721;51.084;17.242;2022-11-18T00:01:25;990.59;;;4.49;67.80
76026;BME280;64721;51.084;17.242;2022-11-18T00:03:24;990.55;;;4.46;67.81
76026;BME280;64721;51.084;17.242;2022-11-18T00:05:23;990.54;;;4.38;68.14
76026;BME280;64721;51.084;17.242;2022-11-18T00:07:33;990.51;;;4.40;67.98
76026;BME280;64721;51.084;17.242;2022-11-18T00:09:31;990.57;;;4.34;68.14
76026;BME280;64721;51.084;17.242;2022-11-18T00:11:16;990.53;;;4.34;68.10
76026;BME280;64721;51.084;17.242;2022-11-18T00:13:44;990.57;;;4.33;68.27
76026;BME280;64721;51.084;17.242;2022-11-18T00:16:11;990.48;;;4.35;68.31
76026;BME280;64721;51.084;17.242;2022-11-18T00:18:11;990.37;;;4.25;68.70
76026;BME280;64721;51.084;17.242;2022-11-18T00:20:14;990.47;;;4.36;68.34
76026;BME280;64721;51.084;17.242;2022-11-18T00:22:14;990.46;;;4.32;68.41
76026;BME280;64721;51.084;17.242;2022-11-18T00:24:14;990.44;;;4.32;68.67
76026;BME280;64721;51.084;17.242;2022-11-18T00:25:51;990.33;;;4.48;68.24
76026;BME280;64721;51.084;17.242;2022-11-18T00:27:41;990.24;;;4.38;68.61
76026;BME280;64721;51.084;17.242;2022-11-18T00:29:18;990.24;;;4.48;68.56
76026;BME280;64721;51.084;17.242;2022-11-18T00:31:24;990.28;;;4.55;68.37
76026;BME280;64721;51.084;17.242;2022-11-18T00:33:25;990.34;;;4.56;68.46
76026;BME280;64721;51.084;17.242;2022-11-18T00:35:12;990.32;;;4.61;68.45
76026;BME280;64721;51.084;17.242;2022-11-18T00:37:05;990.22;;;4.58;68.44
76026;BME280;64721;51.084;17.242;2022-11-18T00:39:03;990.22;;;4.63;68.29
76026;BME280;64721;51.084;17.242;2022-11-18T00:41:17;990.20;;;4.57;68.47
76026;BME280;64721;51.084;17.242;2022-11-18T00:43:16;990.23;;;4.63;68.36
76026;BME280;64721;51.084;17.242;2022-11-18T00:45:14;990.19;;;4.69;68.25
76026;BME280;64721;51.084;17.242;2022-11-18T00:49:21;990.19;;;4.56;68.05
76026;BME280;64721;51.084;17.242;2022-11-18T00:51:13;990.21;;;4.67;67.82
76026;BME280;64721;51.084;17.242;2022-11-18T00:53:11;990.27;;;4.61;67.62
76026;BME280;64721;51.084;17.242;2022-11-18T00:55:33;990.31;;;4.47;67.91
76026;BME280;64721;51.084;17.242;2022-11-18T00:57:54;990.31;;;4.46;67.95
76026;BME280;64721;51.084;17.242;2022-11-18T00:59:38;990.20;;;4.46;67.86
76026;BME280;64721;51.084;17.242;2022-11-18T01:01:37;990.23;;;4.35;68.03
76026;BME280;64721;51.084;17.242;2022-11-18T01:03:42;990.19;;;4.12;68.51
76026;BME280;64721;51.084;17.242;2022-11-18T01:05:55;990.21;;;4.24;68.33
76026;BME280;64721;51.084;17.242;2022-11-18T01:08:08;990.26;;;4.23;68.26
76026;BME280;64721;51.084;17.242;2022-11-18T01:09:53;990.26;;;4.27;68.23
76026;BME280;64721;51.084;17.242;2022-11-18T01:11:50;990.20;;;4.12;68.46
76026;BME280;64721;51.084;17.242;2022-11-18T01:15:51;990.15;;;4.18;68.29
76026;BME280;64721;51.084;17.242;2022-11-18T01:17:36;990.10;;;4.13;68.47
76026;BME280;64721;51.084;17.242;2022-11-18T01:19:33;990.06;;;4.12;68.43
76026;BME280;64721;51.084;17.242;2022-11-18T01:21:38;990.08;;;4.04;68.65
76026;BME280;64721;51.084;17.242;2022-11-18T01:23:35;990.11;;;3.97;68.84
76026;BME280;64721;51.084;17.242;2022-11-18T01:25:19;990.11;;;4.13;68.55
76026;BME280;64721;51.084;17.242;2022-11-18T01:27:21;990.11;;;4.06;68.63
76026;BME280;64721;51.084;17.242;2022-11-18T01:29:20;990.13;;;4.12;68.67
76026;BME280;64721;51.084;17.242;2022-11-18T01:31:08;990.16;;;4.08;68.82
76026;BME280;64721;51.084;17.242;2022-11-18T01:33:06;990.15;;;4.02;68.74
76026;BME280;64721;51.084;17.242;2022-11-18T01:34:50;990.14;;;4.00;68.84
76026;BME280;64721;51.084;17.242;2022-11-18T01:36:50;990.13;;;4.02;68.76
76026;BME280;64721;51.084;17.242;2022-11-18T01:38:47;990.09;;;3.89;68.90
76026;BME280;64721;51.084;17.242;2022-11-18T01:41:00;990.12;;;3.85;69.06
76026;BME280;64721;51.084;17.242;2022-11-18T01:42:44;990.09;;;3.99;68.94
76026;BME280;64721;51.084;17.242;2022-11-18T01:46:39;990.04;;;3.83;69.08
76026;BME280;64721;51.084;17.242;2022-11-18T01:49:06;990.01;;;3.97;68.77
76026;BME280;64721;51.084;17.242;2022-11-18T01:51:08;989.89;;;3.92;68.99
76026;BME280;64721;51.084;17.242;2022-11-18T01:52:56;989.90;;;3.95;69.03
76026;BME280;64721;51.084;17.242;2022-11-18T01:54:45;989.92;;;4.01;68.77
76026;BME280;64721;51.084;17.242;2022-11-18T01:56:46;989.92;;;4.04;68.64
76026;BME280;64721;51.084;17.242;2022-11-18T01:58:34;989.95;;;4.13;68.37
76026;BME280;64721;51.084;17.242;2022-11-18T02:02:25;989.96;;;3.95;68.73
76026;BME280;64721;51.084;17.242;2022-11-18T02:04:24;989.90;;;3.87;69.13
76026;BME280;64721;51.084;17.242;2022-11-18T02:06:10;989.89;;;3.87;68.99
76026;BME280;64721;51.084;17.242;2022-11-18T02:08:10;989.91;;;3.90;68.86
76026;BME280;64721;51.084;17.242;2022-11-18T02:10:23;989.87;;;3.87;68.84
76026;BME280;64721;51.084;17.242;2022-11-18T02:12:07;989.91;;;4.04;68.53
76026;BME280;64721;51.084;17.242;2022-11-18T02:14:20;989.91;;;3.90;68.91
76026;BME280;64721;51.084;17.242;2022-11-18T02:16:19;989.91;;;3.77;69.41
76026;BME280;64721;51.084;17.242;2022-11-18T02:18:12;989.89;;;3.89;69.19
76026;BME280;64721;51.084;17.242;2022-11-18T02:20:23;989.94;;;3.93;68.91
76026;BME280;64721;51.084;17.242;2022-11-18T02:22:52;989.95;;;3.88;68.85
76026;BME280;64721;51.084;17.242;2022-11-18T02:25:25;990.06;;;3.96;68.94
76026;BME280;64721;51.084;17.242;2022-11-18T02:29:48;989.99;;;3.94;68.97
76026;BME280;64721;51.084;17.242;2022-11-18T02:32:18;990.03;;;4.05;68.60
76026;BME280;64721;51.084;17.242;2022-11-18T02:34:54;990.10;;;3.96;68.91
76026;BME280;64721;51.084;17.242;2022-11-18T02:36:59;990.20;;;4.07;68.70
76026;BME280;64721;51.084;17.242;2022-11-18T02:38:52;990.22;;;3.99;68.47
76026;BME280;64721;51.084;17.242;2022-11-18T02:40:57;990.23;;;4.00;68.63
76026;BME280;64721;51.084;17.242;2022-11-18T02:42:44;990.16;;;4.03;68.69
76026;BME280;64721;51.084;17.242;2022-11-18T02:44:51;990.15;;;4.01;68.52
76026;BME280;64721;51.084;17.242;2022-11-18T02:46:37;990.06;;;3.91;69.00
76026;BME280;64721;51.084;17.242;2022-11-18T02:48:36;990.01;;;3.92;68.83
76026;BME280;64721;51.084;17.242;2022-11-18T02:51:08;990.02;;;3.88;68.83
76026;BME280;64721;51.084;17.242;2022-11-18T02:53:21;989.92;;;3.83;69.12
76026;BME280;64721;51.084;17.242;2022-11-18T02:55:10;989.90;;;3.93;68.76
76026;BME280;64721;51.084;17.242;2022-11-18T02:56:57;989.94;;;3.89;68.87
76026;BME280;64721;51.084;17.242;2022-11-18T02:58:56;989.91;;;3.94;68.49
76026;BME280;64721;51.084;17.242;2022-11-18T03:00:40;989.84;;;3.81;68.74
76026;BME280;64721;51.084;17.242;2022-11-18T03:04:50;989.74;;;3.72;69.05
76026;BME280;64721;51.084;17.242;2022-11-18T03:06:59;989.82;;;3.65;69.37
76026;BME280;64721;51.084;17.242;2022-11-18T03:09:02;989.73;;;3.79;69.00
76026;BME280;64721;51.084;17.242;2022-11-18T03:11:50;989.80;;;3.70;69.09
76026;BME280;64721;51.084;17.242;2022-11-18T03:13:47;989.75;;;3.85;68.98
76026;BME280;64721;51.084;17.242;2022-11-18T03:15:56;989.75;;;3.83;69.14
76026;BME280;64721;51.084;17.242;2022-11-18T03:18:17;989.74;;;3.86;69.09
76026;BME280;64721;51.084;17.242;2022-11-18T03:20:27;989.64;;;3.80;69.26
76026;BME280;64721;51.084;17.242;2022-11-18T03:22:29;989.60;;;3.88;68.95
76026;BME280;64721;51.084;17.242;2022-11-18T03:24:34;989.65;;;3.78;69.14
76026;BME280;64721;51.084;17.242;2022-11-18T03:26:41;989.61;;;3.80;69.12
76026;BME280;64721;51.084;17.242;2022-11-18T03:29:14;989.63;;;3.77;69.04
76026;BME280;64721;51.084;17.242;2022-11-18T03:31:06;989.64;;;3.85;69.04
76026;BME280;64721;51.084;17.242;2022-11-18T03:33:08;989.65;;;3.85;68.90
76026;BME280;64721;51.084;17.242;2022-11-18T03:35:10;989.73;;;3.76;69.12
76026;BME280;64721;51.084;17.242;2022-11-18T03:37:02;989.71;;;3.74;69.33
76026;BME280;64721;51.084;17.242;2022-11-18T03:39:02;989.67;;;3.76;69.08
76026;BME280;64721;51.084;17.242;2022-11-18T03:41:06;989.59;;;3.82;69.07
76026;BME280;64721;51.084;17.242;2022-11-18T03:43:09;989.59;;;3.80;69.16
76026;BME280;64721;51.084;17.242;2022-11-18T03:44:56;989.63;;;3.97;68.86
76026;BME280;64721;51.084;17.242;2022-11-18T03:47:01;989.61;;;3.72;69.36
76026;BME280;64721;51.084;17.242;2022-11-18T03:48:52;989.58;;;3.67;69.64
76026;BME280;64721;51.084;17.242;2022-11-18T03:51:07;989.59;;;3.63;69.61
76026;BME280;64721;51.084;17.242;2022-11-18T03:53:39;989.61;;;3.67;69.62
76026;BME280;64721;51.084;17.242;2022-11-18T03:55:41;989.59;;;3.74;69.55
76026;BME280;64721;51.084;17.242;2022-11-18T03:57:42;989.61;;;3.78;69.41
76026;BME280;64721;51.084;17.242;2022-11-18T03:59:48;989.58;;;3.76;69.45
76026;BME280;64721;51.084;17.242;2022-11-18T04:01:56;989.55;;;3.81;69.38
76026;BME280;64721;51.084;17.242;2022-11-18T04:03:58;989.53;;;3.81;69.37
76026;BME280;64721;51.084;17.242;2022-11-18T04:05:57;989.54;;;3.74;69.78
76026;BME280;64721;51.084;17.242;2022-11-18T04:08:01;989.61;;;3.87;69.21
76026;BME280;64721;51.084;17.242;2022-11-18T04:09:50;989.63;;;3.90;69.21
76026;BME280;64721;51.084;17.242;2022-11-18T04:11:39;989.65;;;3.81;69.50
76026;BME280;64721;51.084;17.242;2022-11-18T04:13:58;989.63;;;3.61;70.13
76026;BME280;64721;51.084;17.242;2022-11-18T04:15:59;989.62;;;3.67;69.88
76026;BME280;64721;51.084;17.242;2022-11-18T04:17:50;989.58;;;3.71;69.89
76026;BME280;64721;51.084;17.242;2022-11-18T04:19:47;989.56;;;3.68;69.98
76026;BME280;64721;51.084;17.242;2022-11-18T04:22:04;989.50;;;3.79;69.88
76026;BME280;64721;51.084;17.242;2022-11-18T04:24:07;989.54;;;3.73;70.12
76026;BME280;64721;51.084;17.242;2022-11-18T04:26:07;989.50;;;3.77;70.06
76026;BME280;64721;51.084;17.242;2022-11-18T04:28:19;989.51;;;3.67;70.09
76026;BME280;64721;51.084;17.242;2022-11-18T04:30:18;989.60;;;3.65;70.38
76026;BME280;64721;51.084;17.242;2022-11-18T04:32:57;989.58;;;3.87;69.71
76026;BME280;64721;51.084;17.242;2022-11-18T04:34:56;989.60;;;3.82;69.99
76026;BME280;64721;51.084;17.242;2022-11-18T04:36:46;989.58;;;3.80;69.90
76026;BME280;64721;51.084;17.242;2022-11-18T04:38:30;989.58;;;3.75;69.96
76026;BME280;64721;51.084;17.242;2022-11-18T04:40:44;989.59;;;3.51;70.34
76026;BME280;64721;51.084;17.242;2022-11-18T04:42:28;989.63;;;3.56;70.27
76026;BME280;64721;51.084;17.242;2022-11-18T04:44:26;989.64;;;3.64;69.93
76026;BME280;64721;51.084;17.242;2022-11-18T04:46:28;989.54;;;3.51;69.91
76026;BME280;64721;51.084;17.242;2022-11-18T04:48:27;989.56;;;3.40;70.44
76026;BME280;64721;51.084;17.242;2022-11-18T04:50:11;989.59;;;3.37;70.55
76026;BME280;64721;51.084;17.242;2022-11-18T04:52:11;989.60;;;3.38;70.25
76026;BME280;64721;51.084;17.242;2022-11-18T04:54:09;989.59;;;3.52;69.75
76026;BME280;64721;51.084;17.242;2022-11-18T04:56:09;989.69;;;3.47;69.69
76026;BME280;64721;51.084;17.242;2022-11-18T04:57:53;989.67;;;3.46;69.58
76026;BME280;64721;51.084;17.242;2022-11-18T04:59:38;989.74;;;3.44;69.62
76026;BME280;64721;51.084;17.242;2022-11-18T05:01:36;989.76;;;3.41;69.53
76026;BME280;64721;51.084;17.242;2022-11-18T05:03:20;989.77;;;3.38;69.70
76026;BME280;64721;51.084;17.242;2022-11-18T05:05:33;989.81;;;3.31;69.73
76026;BME280;64721;51.084;17.242;2022-11-18T05:07:45;989.83;;;3.40;69.40
76026;BME280;64721;51.084;17.242;2022-11-18T05:09:43;989.84;;;3.28;69.71
76026;BME280;64721;51.084;17.242;2022-11-18T05:12:09;989.85;;;3.27;69.39
76026;BME280;64721;51.084;17.242;2022-11-18T05:13:54;989.83;;;3.24;69.53
76026;BME280;64721;51.084;17.242;2022-11-18T05:16:21;989.79;;;3.17;69.58
76026;BME280;64721;51.084;17.242;2022-11-18T05:18:48;989.88;;;3.10;69.43
76026;BME280;64721;51.084;17.242;2022-11-18T05:20:32;989.82;;;3.15;69.21
76026;BME280;64721;51.084;17.242;2022-11-18T05:22:16;989.85;;;3.02;69.25
76026;BME280;64721;51.084;17.242;2022-11-18T05:23:53;989.82;;;3.07;69.16
76026;BME280;64721;51.084;17.242;2022-11-18T05:25:56;989.84;;;2.99;69.11
76026;BME280;64721;51.084;17.242;2022-11-18T05:28:23;989.88;;;2.94;68.97
76026;BME280;64721;51.084;17.242;2022-11-18T05:30:22;989.90;;;3.08;68.86
76026;BME280;64721;51.084;17.242;2022-11-18T05:32:34;989.98;;;3.17;68.63
76026;BME280;64721;51.084;17.242;2022-11-18T05:34:33;990.04;;;3.05;68.82
76026;BME280;64721;51.084;17.242;2022-11-18T05:36:34;990.02;;;3.11;68.96
76026;BME280;64721;51.084;17.242;2022-11-18T05:38:35;990.10;;;3.04;68.74
76026;BME280;64721;51.084;17.242;2022-11-18T05:40:34;990.13;;;2.90;68.91
76026;BME280;64721;51.084;17.242;2022-11-18T05:42:58;990.14;;;3.03;68.75
76026;BME280;64721;51.084;17.242;2022-11-18T05:44:57;990.18;;;3.15;68.41
76026;BME280;64721;51.084;17.242;2022-11-18T05:46:56;990.20;;;3.17;68.30
76026;BME280;64721;51.084;17.242;2022-11-18T05:48:53;990.19;;;2.97;68.51
76026;BME280;64721;51.084;17.242;2022-11-18T05:50:52;990.26;;;2.89;68.57
76026;BME280;64721;51.084;17.242;2022-11-18T05:52:50;990.30;;;3.00;68.34
76026;BME280;64721;51.084;17.242;2022-11-18T05:54:37;990.29;;;2.95;68.25
76026;BME280;64721;51.084;17.242;2022-11-18T05:56:24;990.25;;;2.90;68.52
76026;BME280;64721;51.084;17.242;2022-11-18T06:00:11;990.37;;;2.83;68.38
76026;BME280;64721;51.084;17.242;2022-11-18T06:02:15;990.37;;;2.91;68.19
76026;BME280;64721;51.084;17.242;2022-11-18T06:04:12;990.37;;;2.86;68.27
76026;BME280;64721;51.084;17.242;2022-11-18T06:05:59;990.45;;;2.86;68.48
76026;BME280;64721;51.084;17.242;2022-11-18T06:07:58;990.52;;;2.91;68.22
76026;BME280;64721;51.084;17.242;2022-11-18T06:09:58;990.52;;;3.00;68.02
76026;BME280;64721;51.084;17.242;2022-11-18T06:12:12;990.59;;;2.75;68.47
76026;BME280;64721;51.084;17.242;2022-11-18T06:14:27;990.61;;;2.72;68.75
76026;BME280;64721;51.084;17.242;2022-11-18T06:16:28;990.60;;;2.84;68.48
76026;BME280;64721;51.084;17.242;2022-11-18T06:18:55;990.65;;;2.99;68.30
76026;BME280;64721;51.084;17.242;2022-11-18T06:20:55;990.63;;;3.10;68.02
76026;BME280;64721;51.084;17.242;2022-11-18T06:22:40;990.68;;;3.02;67.92
76026;BME280;64721;51.084;17.242;2022-11-18T06:24:40;990.62;;;2.84;68.12
76026;BME280;64721;51.084;17.242;2022-11-18T06:27:06;990.69;;;2.78;68.23
76026;BME280;64721;51.084;17.242;2022-11-18T06:29:04;990.68;;;2.78;68.35
76026;BME280;64721;51.084;17.242;2022-11-18T06:31:03;990.75;;;2.82;68.19
76026;BME280;64721;51.084;17.242;2022-11-18T06:32:47;990.77;;;2.93;68.03
76026;BME280;64721;51.084;17.242;2022-11-18T06:34:44;990.81;;;2.85;68.03
76026;BME280;64721;51.084;17.242;2022-11-18T06:36:42;990.85;;;2.80;67.86
76026;BME280;64721;51.084;17.242;2022-11-18T06:38:27;990.91;;;2.74;68.11
76026;BME280;64721;51.084;17.242;2022-11-18T06:40:27;991.00;;;2.75;67.79
76026;BME280;64721;51.084;17.242;2022-11-18T06:42:11;990.99;;;2.79;67.92
76026;BME280;64721;51.084;17.242;2022-11-18T06:44:22;990.99;;;2.69;67.95
76026;BME280;64721;51.084;17.242;2022-11-18T06:46:20;990.96;;;2.63;68.29
76026;BME280;64721;51.084;17.242;2022-11-18T06:48:03;990.93;;;2.63;67.90
76026;BME280;64721;51.084;17.242;2022-11-18T06:50:09;991.00;;;2.45;68.17
76026;BME280;64721;51.084;17.242;2022-11-18T06:52:06;991.01;;;2.63;67.88
76026;BME280;64721;51.084;17.242;2022-11-18T06:54:03;990.98;;;2.52;68.11
76026;BME280;64721;51.084;17.242;2022-11-18T06:55:47;991.03;;;2.57;68.16
76026;BME280;64721;51.084;17.242;2022-11-18T06:57:31;991.06;;;2.66;67.98
76026;BME280;64721;51.084;17.242;2022-11-18T06:59:15;991.16;;;2.80;67.30
76026;BME280;64721;51.084;17.242;2022-11-18T07:00:52;991.10;;;2.61;67.87
76026;BME280;64721;51.084;17.242;2022-11-18T07:02:35;991.13;;;2.54;67.96
76026;BME280;64721;51.084;17.242;2022-11-18T07:04:19;991.06;;;2.50;68.01
76026;BME280;64721;51.084;17.242;2022-11-18T07:06:33;991.15;;;2.62;67.70
76026;BME280;64721;51.084;17.242;2022-11-18T07:08:31;991.20;;;2.64;67.77
76026;BME280;64721;51.084;17.242;2022-11-18T07:10:30;991.19;;;2.55;68.05
76026;BME280;64721;51.084;17.242;2022-11-18T07:12:34;991.14;;;2.51;68.01
76026;BME280;64721;51.084;17.242;2022-11-18T07:14:32;991.20;;;2.48;67.74
76026;BME280;64721;51.084;17.242;2022-11-18T07:16:37;991.29;;;2.56;67.77
76026;BME280;64721;51.084;17.242;2022-11-18T07:18:35;991.32;;;2.52;67.96
76026;BME280;64721;51.084;17.242;2022-11-18T07:20:46;991.36;;;2.62;67.92
76026;BME280;64721;51.084;17.242;2022-11-18T07:22:46;991.41;;;2.60;67.75
76026;BME280;64721;51.084;17.242;2022-11-18T07:24:30;991.38;;;2.67;67.77
76026;BME280;64721;51.084;17.242;2022-11-18T07:26:29;991.35;;;2.64;67.51
76026;BME280;64721;51.084;17.242;2022-11-18T07:28:13;991.31;;;2.46;67.64
76026;BME280;64721;51.084;17.242;2022-11-18T07:30:11;991.35;;;2.62;67.47
76026;BME280;64721;51.084;17.242;2022-11-18T07:32:09;991.42;;;2.44;67.34
76026;BME280;64721;51.084;17.242;2022-11-18T07:33:54;991.25;;;2.49;67.66
76026;BME280;64721;51.084;17.242;2022-11-18T07:35:52;991.25;;;2.45;67.35
76026;BME280;64721;51.084;17.242;2022-11-18T07:37:49;991.21;;;2.53;67.10
76026;BME280;64721;51.084;17.242;2022-11-18T07:39:33;991.22;;;2.57;66.89
76026;BME280;64721;51.084;17.242;2022-11-18T07:41:45;991.24;;;2.54;66.96
76026;BME280;64721;51.084;17.242;2022-11-18T07:43:42;991.33;;;2.45;67.24
76026;BME280;64721;51.084;17.242;2022-11-18T07:45:27;991.32;;;2.44;67.39
76026;BME280;64721;51.084;17.242;2022-11-18T07:47:19;991.28;;;2.64;66.80
76026;BME280;64721;51.084;17.242;2022-11-18T07:49:09;991.20;;;2.62;66.70
76026;BME280;64721;51.084;17.242;2022-11-18T07:50:53;991.22;;;2.73;66.70
76026;BME280;64721;51.084;17.242;2022-11-18T07:53:05;991.25;;;2.82;66.10
76026;BME280;64721;51.084;17.242;2022-11-18T07:55:30;991.20;;;2.81;65.97
76026;BME280;64721;51.084;17.242;2022-11-18T07:57:28;991.24;;;2.68;66.17
76026;BME280;64721;51.084;17.242;2022-11-18T07:59:25;991.20;;;2.69;66.26
76026;BME280;64721;51.084;17.242;2022-11-18T08:01:26;991.23;;;2.67;66.06
76026;BME280;64721;51.084;17.242;2022-11-18T08:03:23;991.26;;;2.61;66.07
76026;BME280;64721;51.084;17.242;2022-11-18T08:05:07;991.28;;;2.70;65.75
76026;BME280;64721;51.084;17.242;2022-11-18T08:07:04;991.26;;;2.53;65.54
76026;BME280;64721;51.084;17.242;2022-11-18T08:10:44;991.28;;;2.54;65.31
76026;BME280;64721;51.084;17.242;2022-11-18T08:12:34;991.29;;;2.67;65.05
76026;BME280;64721;51.084;17.242;2022-11-18T08:14:18;991.26;;;2.63;64.75
76026;BME280;64721;51.084;17.242;2022-11-18T08:16:03;991.26;;;2.66;64.92
76026;BME280;64721;51.084;17.242;2022-11-18T08:18:20;991.20;;;2.49;64.56
76026;BME280;64721;51.084;17.242;2022-11-18T08:20:18;991.23;;;2.71;64.54
76026;BME280;64721;51.084;17.242;2022-11-18T08:22:01;991.22;;;2.82;64.17
76026;BME280;64721;51.084;17.242;2022-11-18T08:24:01;991.20;;;2.82;64.16
76026;BME280;64721;51.084;17.242;2022-11-18T08:26:14;991.25;;;2.76;64.27
76026;BME280;64721;51.084;17.242;2022-11-18T08:28:12;991.33;;;2.80;64.14
76026;BME280;64721;51.084;17.242;2022-11-18T08:30:11;991.27;;;2.80;63.88
76026;BME280;64721;51.084;17.242;2022-11-18T08:32:09;991.24;;;2.98;63.74
76026;BME280;64721;51.084;17.242;2022-11-18T08:33:53;991.23;;;3.12;63.28
76026;BME280;64721;51.084;17.242;2022-11-18T08:35:52;991.22;;;3.02;63.22
76026;BME280;64721;51.084;17.242;2022-11-18T08:37:51;991.24;;;3.12;63.11
76026;BME280;64721;51.084;17.242;2022-11-18T08:39:35;991.24;;;3.28;62.79
76026;BME280;64721;51.084;17.242;2022-11-18T08:41:24;991.20;;;3.32;62.17
76026;BME280;64721;51.084;17.242;2022-11-18T08:46:59;991.23;;;3.56;61.90
76026;BME280;64721;51.084;17.242;2022-11-18T08:48:57;991.26;;;3.38;61.84
76026;BME280;64721;51.084;17.242;2022-11-18T08:50:34;991.25;;;3.54;61.76
76026;BME280;64721;51.084;17.242;2022-11-18T08:52:23;991.27;;;3.62;61.22
76026;BME280;64721;51.084;17.242;2022-11-18T08:54:00;991.31;;;3.69;61.02
76026;BME280;64721;51.084;17.242;2022-11-18T08:55:59;991.36;;;3.53;60.89
76026;BME280;64721;51.084;17.242;2022-11-18T08:57:56;991.35;;;3.61;61.08
76026;BME280;64721;51.084;17.242;2022-11-18T08:59:43;991.35;;;3.38;60.88
76026;BME280;64721;51.084;17.242;2022-11-18T09:01:42;991.38;;;3.55;60.90
76026;BME280;64721;51.084;17.242;2022-11-18T09:03:27;991.41;;;3.54;61.05
76026;BME280;64721;51.084;17.242;2022-11-18T09:05:25;991.41;;;3.52;61.03
76026;BME280;64721;51.084;17.242;2022-11-18T09:07:30;991.51;;;3.37;61.26
76026;BME280;64721;51.084;17.242;2022-11-18T09:09:14;991.58;;;3.63;61.04
76026;BME280;64721;51.084;17.242;2022-11-18T09:11:12;991.59;;;3.52;61.30
76026;BME280;64721;51.084;17.242;2022-11-18T09:13:10;991.65;;;3.37;61.50
76026;BME280;64721;51.084;17.242;2022-11-18T09:15:12;991.64;;;3.29;61.26
76026;BME280;64721;51.084;17.242;2022-11-18T09:17:23;991.67;;;3.34;61.30
76026;BME280;64721;51.084;17.242;2022-11-18T09:19:07;991.61;;;3.23;61.12
76026;BME280;64721;51.084;17.242;2022-11-18T09:21:07;991.70;;;3.08;61.16
76026;BME280;64721;51.084;17.242;2022-11-18T09:23:19;991.81;;;3.10;60.98
76026;BME280;64721;51.084;17.242;2022-11-18T09:25:18;991.72;;;3.35;60.47
76026;BME280;64721;51.084;17.242;2022-11-18T09:27:49;991.66;;;3.31;60.24
76026;BME280;64721;51.084;17.242;2022-11-18T09:30:00;991.69;;;3.47;60.10
76026;BME280;64721;51.084;17.242;2022-11-18T09:32:25;991.66;;;3.29;60.38
76026;BME280;64721;51.084;17.242;2022-11-18T09:34:08;991.72;;;3.22;60.54
76026;BME280;64721;51.084;17.242;2022-11-18T09:35:51;991.70;;;3.25;59.92
76026;BME280;64721;51.084;17.242;2022-11-18T09:37:37;991.71;;;3.38;59.53
76026;BME280;64721;51.084;17.242;2022-11-18T09:39:27;991.73;;;3.30;59.72
76026;BME280;64721;51.084;17.242;2022-11-18T09:41:14;991.77;;;3.22;59.71
76026;BME280;64721;51.084;17.242;2022-11-18T09:43:13;991.72;;;3.46;59.40
76026;BME280;64721;51.084;17.242;2022-11-18T09:45:52;991.74;;;3.24;59.86
76026;BME280;64721;51.084;17.242;2022-11-18T09:48:14;991.82;;;3.20;59.48
76026;BME280;64721;51.084;17.242;2022-11-18T09:50:28;991.82;;;3.39;59.63
76026;BME280;64721;51.084;17.242;2022-11-18T09:52:26;991.85;;;3.39;59.47
76026;BME280;64721;51.084;17.242;2022-11-18T09:54:29;991.77;;;3.47;59.42
76026;BME280;64721;51.084;17.242;2022-11-18T09:56:31;991.78;;;3.52;59.12
76026;BME280;64721;51.084;17.242;2022-11-18T09:58:33;991.82;;;3.53;59.02
76026;BME280;64721;51.084;17.242;2022-11-18T10:00:13;991.87;;;3.66;59.02
76026;BME280;64721;51.084;17.242;2022-11-18T10:02:18;991.83;;;3.58;58.87
76026;BME280;64721;51.084;17.242;2022-11-18T10:04:10;991.80;;;3.78;58.74
76026;BME280;64721;51.084;17.242;2022-11-18T10:06:11;991.80;;;3.76;58.65
76026;BME280;64721;51.084;17.242;2022-11-18T10:08:29;991.79;;;3.85;57.94
76026;BME280;64721;51.084;17.242;2022-11-18T10:10:30;991.79;;;3.90;58.50
76026;BME280;64721;51.084;17.242;2022-11-18T10:12:24;991.78;;;3.73;58.26
76026;BME280;64721;51.084;17.242;2022-11-18T10:14:25;991.83;;;3.95;57.98
76026;BME280;64721;51.084;17.242;2022-11-18T10:18:21;991.80;;;4.02;57.65
76026;BME280;64721;51.084;17.242;2022-11-18T10:20:28;991.87;;;3.98;57.35
76026;BME280;64721;51.084;17.242;2022-11-18T10:22:49;991.79;;;4.04;57.24
76026;BME280;64721;51.084;17.242;2022-11-18T10:25:09;991.82;;;3.86;56.94
76026;BME280;64721;51.084;17.242;2022-11-18T10:26:58;991.73;;;3.92;57.42
76026;BME280;64721;51.084;17.242;2022-11-18T10:28:59;991.80;;;3.81;57.37
76026;BME280;64721;51.084;17.242;2022-11-18T10:31:01;991.87;;;3.80;57.50
76026;BME280;64721;51.084;17.242;2022-11-18T10:33:29;991.90;;;3.84;57.31
76026;BME280;64721;51.084;17.242;2022-11-18T10:35:32;991.85;;;3.95;57.17
76026;BME280;64721;51.084;17.242;2022-11-18T10:38:03;991.88;;;4.06;56.91
76026;BME280;64721;51.084;17.242;2022-11-18T10:40:03;991.81;;;4.14;56.71
76026;BME280;64721;51.084;17.242;2022-11-18T10:42:28;991.85;;;4.16;56.62
76026;BME280;64721;51.084;17.242;2022-11-18T10:46:56;991.89;;;4.08;56.71
76026;BME280;64721;51.084;17.242;2022-11-18T10:49:30;991.92;;;4.06;56.69
76026;BME280;64721;51.084;17.242;2022-11-18T10:50:43;991.94;;;4.33;56.36
76026;BME280;64721;51.084;17.242;2022-11-18T10:52:58;991.95;;;4.43;56.12
76026;BME280;64721;51.084;17.242;2022-11-18T10:57:12;992.03;;;4.27;55.72
76026;BME280;64721;51.084;17.242;2022-11-18T10:59:15;991.98;;;4.36;55.33
76026;BME280;64721;51.084;17.242;2022-11-18T11:01:42;992.03;;;4.48;55.60
76026;BME280;64721;51.084;17.242;2022-11-18T11:04:10;992.10;;;4.37;55.99
76026;BME280;64721;51.084;17.242;2022-11-18T11:08:18;991.97;;;4.19;55.31
76026;BME280;64721;51.084;17.242;2022-11-18T11:10:12;992.00;;;4.11;55.25
76026;BME280;64721;51.084;17.242;2022-11-18T11:12:10;992.00;;;4.45;55.08
76026;BME280;64721;51.084;17.242;2022-11-18T11:14:26;992.08;;;4.36;55.61
76026;BME280;64721;51.084;17.242;2022-11-18T11:16:30;992.11;;;4.35;55.83
76026;BME280;64721;51.084;17.242;2022-11-18T11:18:19;992.11;;;4.38;55.75
76026;BME280;64721;51.084;17.242;2022-11-18T11:20:19;992.11;;;4.36;55.55
76026;BME280;64721;51.084;17.242;2022-11-18T11:22:06;992.11;;;4.46;55.49
76026;BME280;64721;51.084;17.242;2022-11-18T11:24:07;992.09;;;4.14;55.74